createdAt,value
2022-12-10T00:01:43.921Z,99.90
2022-12-10T00:04:12.750Z,99.90
2022-12-10T00:06:42.085Z,99.70
2022-12-10T00:09:12.908Z,99.50
2022-12-10T00:11:41.602Z,99.90
2022-12-10T00:14:10.944Z,99.90
2022-12-10T00:16:39.791Z,99.90
2022-12-10T00:19:07.948Z,99.90
2022-12-10T00:21:37.634Z,99.90
2022-12-10T00:24:06.759Z,99.90
2022-12-10T00:26:38.600Z,99.90
2022-12-10T00:29:08.954Z,99.60
2022-12-10T00:31:38.420Z,99.40
2022-12-10T00:34:07.158Z,99.30
2022-12-10T00:36:37.933Z,99.90
2022-12-10T00:39:07.025Z,99.90
2022-12-10T00:41:36.787Z,99.70
2022-12-10T00:44:05.216Z,99.90
2022-12-10T00:46:33.671Z,99.90
2022-12-10T00:49:01.990Z,99.90
2022-12-10T00:51:30.326Z,99.90
2022-12-10T00:53:59.934Z,99.90
2022-12-10T00:56:30.351Z,99.90
2022-12-10T00:59:01.014Z,99.90
2022-12-10T01:01:32.488Z,99.90
2022-12-10T01:04:02.943Z,99.90
2022-12-10T01:06:33.142Z,99.90
2022-12-10T01:09:03.090Z,99.90
2022-12-10T01:11:35.006Z,99.90
2022-12-10T01:14:04.874Z,99.90
2022-12-10T01:16:33.069Z,99.90
2022-12-10T01:19:01.688Z,99.90
2022-12-10T01:21:31.332Z,99.90
2022-12-10T01:24:00.895Z,99.90
2022-12-10T01:26:31.653Z,99.90
2022-12-10T01:29:00.448Z,99.90
2022-12-10T01:31:32.764Z,99.90
2022-12-10T01:34:02.388Z,99.90
2022-12-10T01:36:30.992Z,99.90
2022-12-10T01:38:59.887Z,99.90
2022-12-10T01:41:31.258Z,99.90
2022-12-10T01:44:01.476Z,99.90
2022-12-10T01:46:33.008Z,99.90
2022-12-10T01:49:03.658Z,99.90
2022-12-10T01:51:37.990Z,99.90
2022-12-10T01:54:09.025Z,99.90
2022-12-10T01:56:40.038Z,99.90
2022-12-10T01:59:08.914Z,99.90
2022-12-10T02:01:52.199Z,99.90
2022-12-10T02:04:30.357Z,99.90
2022-12-10T02:07:02.707Z,99.90
2022-12-10T02:09:37.969Z,99.90
2022-12-10T02:12:14.229Z,99.90
2022-12-10T02:14:53.086Z,99.90
2022-12-10T02:17:28.491Z,99.90
2022-12-10T02:20:06.787Z,99.90
2022-12-10T02:22:38.991Z,99.90
2022-12-10T02:25:10.039Z,99.90
2022-12-10T02:27:47.130Z,99.90
2022-12-10T02:30:17.305Z,99.90
2022-12-10T02:32:48.807Z,99.90
2022-12-10T02:35:22.041Z,99.90
2022-12-10T02:37:53.342Z,99.90
2022-12-10T02:40:27.329Z,99.90
2022-12-10T02:42:55.620Z,99.90
2022-12-10T02:45:29.469Z,99.90
2022-12-10T02:48:00.613Z,99.90
2022-12-10T02:50:29.302Z,99.90
2022-12-10T02:52:57.388Z,99.90
2022-12-10T02:55:25.650Z,99.90
2022-12-10T02:58:09.050Z,99.90
2022-12-10T03:00:46.382Z,99.90
2022-12-10T03:03:25.877Z,99.90
2022-12-10T03:05:56.350Z,99.90
2022-12-10T03:08:29.223Z,99.90
2022-12-10T03:11:01.518Z,99.90
2022-12-10T03:13:32.035Z,99.90
2022-12-10T03:16:02.862Z,99.90
2022-12-10T03:18:32.751Z,99.90
2022-12-10T03:21:04.907Z,99.90
2022-12-10T03:23:35.402Z,99.90
2022-12-10T03:26:05.729Z,99.90
2022-12-10T03:28:39.730Z,99.90
2022-12-10T03:31:11.833Z,99.90
2022-12-10T03:33:40.832Z,99.90
2022-12-10T03:36:10.615Z,99.90
2022-12-10T03:38:39.477Z,99.90
2022-12-10T03:41:07.848Z,99.90
2022-12-10T03:43:36.430Z,99.90
2022-12-10T03:46:05.109Z,99.90
2022-12-10T03:48:34.623Z,99.90
2022-12-10T03:51:02.536Z,99.90
2022-12-10T03:53:30.669Z,99.90
2022-12-10T03:55:58.786Z,99.90
2022-12-10T03:58:26.967Z,99.90
2022-12-10T04:00:56.124Z,99.90
2022-12-10T04:03:24.583Z,99.90
2022-12-10T04:05:54.058Z,99.90
2022-12-10T04:08:22.055Z,99.90
2022-12-10T04:10:50.161Z,99.90
2022-12-10T04:13:35.942Z,99.90
2022-12-10T04:16:21.884Z,99.90
2022-12-10T04:18:50.126Z,99.90
2022-12-10T04:21:37.107Z,99.90
2022-12-10T04:24:19.607Z,99.90
2022-12-10T04:26:56.890Z,99.90
2022-12-10T04:29:26.691Z,99.90
2022-12-10T04:31:55.375Z,99.90
2022-12-10T04:34:24.012Z,99.90
2022-12-10T04:36:53.681Z,99.90
2022-12-10T04:39:21.902Z,99.90
2022-12-10T04:41:51.382Z,99.90
2022-12-10T04:44:20.606Z,99.90
2022-12-10T04:46:49.427Z,99.90
2022-12-10T04:49:18.173Z,99.90
2022-12-10T04:51:46.590Z,99.90
2022-12-10T04:54:16.277Z,99.90
2022-12-10T04:56:45.008Z,99.90
2022-12-10T04:59:13.396Z,99.90
2022-12-10T05:01:41.843Z,99.90
2022-12-10T05:04:13.010Z,99.90
2022-12-10T05:06:42.286Z,99.90
2022-12-10T05:09:11.894Z,99.90
2022-12-10T05:11:41.654Z,99.90
2022-12-10T05:14:12.281Z,99.90
2022-12-10T05:16:40.363Z,99.90
2022-12-10T05:19:08.536Z,99.90
2022-12-10T05:21:50.526Z,99.90
2022-12-10T05:24:19.851Z,99.90
2022-12-10T05:26:52.044Z,99.90
2022-12-10T05:29:21.362Z,99.90
2022-12-10T05:31:49.518Z,99.90
2022-12-10T05:34:17.606Z,99.90
2022-12-10T05:36:45.727Z,99.90
2022-12-10T05:39:13.895Z,99.90
2022-12-10T05:41:42.757Z,99.90
2022-12-10T05:44:13.548Z,99.90
2022-12-10T05:46:42.136Z,99.90
2022-12-10T05:49:10.370Z,99.90
2022-12-10T05:51:39.683Z,99.90
2022-12-10T05:54:10.207Z,99.90
2022-12-10T05:56:39.447Z,99.90
2022-12-10T05:59:12.846Z,99.90
2022-12-10T06:01:46.154Z,99.90
2022-12-10T06:04:14.829Z,99.90
2022-12-10T06:06:43.882Z,99.90
2022-12-10T06:09:15.167Z,99.90
2022-12-10T06:11:43.561Z,99.90
2022-12-10T06:14:12.379Z,99.90
2022-12-10T06:16:41.578Z,99.90
2022-12-10T06:19:11.075Z,99.90
2022-12-10T06:21:39.546Z,99.90
2022-12-10T06:24:08.472Z,99.90
2022-12-10T06:26:36.589Z,99.90
2022-12-10T06:29:05.690Z,99.90
2022-12-10T06:31:34.233Z,99.90
2022-12-10T06:34:02.590Z,99.90
2022-12-10T06:36:32.110Z,99.90
2022-12-10T06:39:00.018Z,99.90
2022-12-10T06:41:28.322Z,99.90
2022-12-10T06:43:59.391Z,99.90
2022-12-10T06:46:29.603Z,99.90
2022-12-10T06:48:57.839Z,99.90
2022-12-10T06:51:26.118Z,99.90
2022-12-10T06:53:55.728Z,99.90
2022-12-10T06:56:24.470Z,99.90
2022-12-10T06:58:52.785Z,99.90
2022-12-10T07:01:22.808Z,99.90
2022-12-10T07:03:51.757Z,99.90
2022-12-10T07:06:20.982Z,99.90
2022-12-10T07:08:49.537Z,99.90
2022-12-10T07:11:21.063Z,99.90
2022-12-10T07:13:49.310Z,99.90
2022-12-10T07:16:19.390Z,99.90
2022-12-10T07:18:52.192Z,99.90
2022-12-10T07:21:23.086Z,99.90
2022-12-10T07:23:51.462Z,99.90
2022-12-10T07:26:21.117Z,99.90
2022-12-10T07:28:53.534Z,99.90
2022-12-10T07:31:23.773Z,99.90
2022-12-10T07:33:53.250Z,99.90
2022-12-10T07:36:23.481Z,99.90
2022-12-10T07:38:52.635Z,99.90
2022-12-10T07:41:23.388Z,99.90
2022-12-10T07:43:51.981Z,99.90
2022-12-10T07:46:22.562Z,99.90
2022-12-10T07:48:52.048Z,99.90
2022-12-10T07:51:22.350Z,99.90
2022-12-10T07:53:53.486Z,99.90
2022-12-10T07:56:24.093Z,99.90
2022-12-10T07:58:52.672Z,99.90
2022-12-10T08:01:23.582Z,99.90
2022-12-10T08:03:51.927Z,99.90
2022-12-10T08:06:21.826Z,99.90
2022-12-10T08:08:51.110Z,99.90
2022-12-10T08:11:21.220Z,99.90
2022-12-10T08:13:56.553Z,99.90
2022-12-10T08:16:27.808Z,99.90
2022-12-10T08:18:57.166Z,99.90
2022-12-10T08:21:27.787Z,99.90
2022-12-10T08:23:56.308Z,99.90
2022-12-10T08:26:26.964Z,99.90
2022-12-10T08:28:57.390Z,99.90
2022-12-10T08:31:26.874Z,99.90
2022-12-10T08:33:54.861Z,99.90
2022-12-10T08:36:23.171Z,99.80
2022-12-10T08:38:51.754Z,98.90
2022-12-10T08:41:22.615Z,98.40
2022-12-10T08:43:52.858Z,97.80
2022-12-10T08:46:22.921Z,97.60
2022-12-10T08:48:51.326Z,96.70
2022-12-10T08:51:21.596Z,95.80
2022-12-10T08:53:49.746Z,95.60
2022-12-10T08:56:17.965Z,95.80
2022-12-10T08:58:46.128Z,93.70
2022-12-10T09:01:16.688Z,93.30
2022-12-10T09:03:46.261Z,90.60
2022-12-10T09:06:15.415Z,92.00
2022-12-10T09:08:43.807Z,91.30
2022-12-10T09:11:14.723Z,92.70
2022-12-10T09:13:43.669Z,91.60
2022-12-10T09:16:12.500Z,92.90
2022-12-10T09:18:40.923Z,92.50
2022-12-10T09:21:13.451Z,91.00
2022-12-10T09:23:42.258Z,91.90
2022-12-10T09:26:12.403Z,90.10
2022-12-10T09:28:41.234Z,90.00
2022-12-10T09:31:14.503Z,89.70
2022-12-10T09:33:45.253Z,87.60
2022-12-10T09:36:15.894Z,87.80
2022-12-10T09:38:46.665Z,84.20
2022-12-10T09:41:36.510Z,82.10
2022-12-10T09:44:10.985Z,81.60
2022-12-10T09:46:50.529Z,80.90
2022-12-10T09:49:22.507Z,79.70
2022-12-10T09:51:56.355Z,86.00
2022-12-10T09:54:28.546Z,83.80
2022-12-10T09:56:59.215Z,86.00
2022-12-10T09:59:32.580Z,82.20
2022-12-10T10:02:14.993Z,81.50
2022-12-10T10:04:43.313Z,84.10
2022-12-10T10:07:21.215Z,83.90
2022-12-10T10:09:50.145Z,82.90
2022-12-10T10:12:18.870Z,76.00
2022-12-10T10:14:47.866Z,76.70
2022-12-10T10:17:21.916Z,76.20
2022-12-10T10:19:50.593Z,75.60
2022-12-10T10:22:20.418Z,73.80
2022-12-10T10:24:48.971Z,70.00
2022-12-10T10:27:20.394Z,66.50
2022-12-10T10:29:55.892Z,70.60
2022-12-10T10:32:27.769Z,77.60
2022-12-10T10:34:58.385Z,73.70
2022-12-10T10:37:30.701Z,78.50
2022-12-10T10:40:00.140Z,75.20
2022-12-10T10:42:36.931Z,74.60
2022-12-10T10:45:06.596Z,72.70
2022-12-10T10:47:37.790Z,71.50
2022-12-10T10:50:07.777Z,73.20
2022-12-10T10:52:40.870Z,75.60
2022-12-10T10:55:36.611Z,71.50
2022-12-10T10:58:04.935Z,67.20
2022-12-10T11:00:33.046Z,72.70
2022-12-10T11:03:01.382Z,68.80
2022-12-10T11:05:36.421Z,62.30
2022-12-10T11:08:09.124Z,51.20
2022-12-10T11:10:38.867Z,48.20
2022-12-10T11:13:09.045Z,50.80
2022-12-10T11:15:41.178Z,54.80
2022-12-10T11:18:26.828Z,52.00
2022-12-10T11:21:03.343Z,45.70
2022-12-10T11:23:38.147Z,46.70
2022-12-10T11:26:39.676Z,43.80
2022-12-10T11:29:20.211Z,41.10
2022-12-10T11:31:58.726Z,46.40
2022-12-10T11:34:37.829Z,49.40
2022-12-10T11:37:14.616Z,50.30
2022-12-10T11:40:16.120Z,46.60
2022-12-10T11:42:56.900Z,50.90
2022-12-10T11:45:29.057Z,42.80
2022-12-10T11:48:12.203Z,46.90
2022-12-10T11:50:44.728Z,43.80
2022-12-10T11:53:29.836Z,50.50
2022-12-10T11:56:07.548Z,43.70
2022-12-10T11:59:04.999Z,42.40
2022-12-10T12:01:59.498Z,45.10
2022-12-10T12:04:40.507Z,46.40
2022-12-10T12:07:28.624Z,44.40
2022-12-10T12:10:11.595Z,36.30
2022-12-10T12:12:55.676Z,50.10
2022-12-10T12:15:29.797Z,47.20
2022-12-10T12:18:03.346Z,46.90
2022-12-10T12:20:36.145Z,52.20
2022-12-10T12:23:13.095Z,59.00
2022-12-10T12:25:46.542Z,51.30
2022-12-10T12:28:22.437Z,51.40
2022-12-10T12:30:59.068Z,49.70
2022-12-10T12:33:31.314Z,53.80
2022-12-10T12:36:04.759Z,53.30
2022-12-10T12:38:38.067Z,53.40
2022-12-10T12:41:11.257Z,54.50
2022-12-10T12:43:50.967Z,54.10
2022-12-10T12:46:23.094Z,48.80
2022-12-10T12:48:58.296Z,50.00
2022-12-10T12:51:31.670Z,50.50
2022-12-10T12:54:00.046Z,48.70
2022-12-10T12:56:44.188Z,53.20
2022-12-10T12:59:27.141Z,51.80
2022-12-10T13:01:59.700Z,55.10
2022-12-10T13:04:29.230Z,58.30
2022-12-10T13:07:45.215Z,66.30
2022-12-10T13:10:27.414Z,67.60
2022-12-10T13:13:19.278Z,65.90
2022-12-10T13:15:48.995Z,67.90
2022-12-10T13:18:37.227Z,74.90
2022-12-10T13:21:31.666Z,74.50
2022-12-10T13:24:12.243Z,76.80
2022-12-10T13:27:07.836Z,75.20
2022-12-10T13:29:47.950Z,73.80
2022-12-10T13:32:20.568Z,75.30
2022-12-10T13:34:50.793Z,76.50
2022-12-10T13:37:33.179Z,77.00
2022-12-10T13:40:17.347Z,78.50
2022-12-10T13:43:05.036Z,79.30
2022-12-10T13:45:37.237Z,81.30
2022-12-10T13:48:33.206Z,86.40
2022-12-10T13:51:23.162Z,82.80
2022-12-10T13:54:02.347Z,82.70
2022-12-10T13:56:32.256Z,87.00
2022-12-10T13:59:19.865Z,86.60
2022-12-10T14:01:57.316Z,86.20
2022-12-10T14:04:44.037Z,83.90
2022-12-10T14:07:14.711Z,85.80
2022-12-10T14:09:48.628Z,85.30
2022-12-10T14:12:19.101Z,86.60
2022-12-10T14:14:52.988Z,86.10
2022-12-10T14:17:22.951Z,90.00
2022-12-10T14:19:56.806Z,90.40
2022-12-10T14:22:31.666Z,90.50
2022-12-10T14:25:02.574Z,90.70
2022-12-10T14:27:31.969Z,91.20
2022-12-10T14:30:06.343Z,90.50
2022-12-10T14:32:39.510Z,90.80
2022-12-10T14:35:14.007Z,91.60
2022-12-10T14:37:44.526Z,91.20
2022-12-10T14:40:21.897Z,88.90
2022-12-10T14:42:50.482Z,89.70
2022-12-10T14:45:18.793Z,90.30
2022-12-10T14:47:48.912Z,89.40
2022-12-10T14:50:19.749Z,89.60
2022-12-10T14:52:53.235Z,90.20
2022-12-10T14:55:25.867Z,90.60
2022-12-10T14:57:57.138Z,92.10
2022-12-10T15:00:26.108Z,92.40
2022-12-10T15:02:58.168Z,92.40
2022-12-10T15:05:29.593Z,92.60
2022-12-10T15:07:59.505Z,93.80
2022-12-10T15:10:31.286Z,93.20
2022-12-10T15:12:59.695Z,94.40
2022-12-10T15:15:33.164Z,94.60
2022-12-10T15:18:05.245Z,95.80
2022-12-10T15:20:39.897Z,95.00
2022-12-10T15:23:19.951Z,95.00
2022-12-10T15:25:52.376Z,95.40
2022-12-10T15:28:30.345Z,96.10
2022-12-10T15:31:00.396Z,96.20
2022-12-10T15:33:35.185Z,96.70
2022-12-10T15:36:05.106Z,96.30
2022-12-10T15:38:34.108Z,96.90
2022-12-10T15:41:18.005Z,96.80
2022-12-10T15:43:56.169Z,97.30
2022-12-10T15:46:24.342Z,97.50
2022-12-10T15:48:52.441Z,98.00
2022-12-10T15:51:22.084Z,98.00
2022-12-10T15:53:50.208Z,98.40
2022-12-10T15:56:18.291Z,99.00
2022-12-10T15:58:46.370Z,98.80
2022-12-10T16:01:16.815Z,98.60
2022-12-10T16:03:45.666Z,98.20
2022-12-10T16:06:19.462Z,98.20
2022-12-10T16:08:49.355Z,97.50
2022-12-10T16:11:19.292Z,97.70
2022-12-10T16:13:51.627Z,97.80
2022-12-10T16:16:20.444Z,97.50
2022-12-10T16:18:48.697Z,97.70
2022-12-10T16:21:16.869Z,97.10
2022-12-10T16:23:44.910Z,96.90
2022-12-10T16:26:20.159Z,97.40
2022-12-10T16:28:49.611Z,97.50
2022-12-10T16:31:20.416Z,98.00
2022-12-10T16:33:52.720Z,97.60
2022-12-10T16:36:20.888Z,97.40
2022-12-10T16:38:49.116Z,97.90
2022-12-10T16:41:21.334Z,97.90
2022-12-10T16:43:49.467Z,98.00
2022-12-10T16:46:18.159Z,97.80
2022-12-10T16:48:46.313Z,97.90
2022-12-10T16:51:22.777Z,97.80
2022-12-10T16:53:51.015Z,97.80
2022-12-10T16:56:20.577Z,97.60
2022-12-10T16:58:48.934Z,97.20
2022-12-10T17:01:20.942Z,97.70
2022-12-10T17:03:49.509Z,97.70
2022-12-10T17:06:18.702Z,97.80
2022-12-10T17:08:47.553Z,98.20
2022-12-10T17:11:40.638Z,98.00
2022-12-10T17:14:16.012Z,98.40
2022-12-10T17:16:44.170Z,98.70
2022-12-10T17:19:14.127Z,98.20
2022-12-10T17:21:42.306Z,98.40
2022-12-10T17:24:10.401Z,97.70
2022-12-10T17:26:43.677Z,98.10
2022-12-10T17:29:17.597Z,97.60
2022-12-10T17:31:45.877Z,97.90
2022-12-10T17:34:15.148Z,97.40
2022-12-10T17:36:44.688Z,97.20
2022-12-10T17:39:18.693Z,97.30
2022-12-10T17:41:51.947Z,97.30
2022-12-10T17:44:20.509Z,97.40
2022-12-10T17:46:48.652Z,97.20
2022-12-10T17:49:17.743Z,96.90
2022-12-10T17:51:46.611Z,96.80
2022-12-10T17:54:15.034Z,97.40
2022-12-10T17:56:44.729Z,97.00
2022-12-10T17:59:16.482Z,97.10
2022-12-10T18:01:48.398Z,97.10
2022-12-10T18:04:17.797Z,97.40
2022-12-10T18:06:45.989Z,97.30
2022-12-10T18:09:14.155Z,97.60
2022-12-10T18:11:44.503Z,97.50
2022-12-10T18:14:15.468Z,97.10
2022-12-10T18:16:44.226Z,97.40
2022-12-10T18:19:16.527Z,97.50
2022-12-10T18:21:49.022Z,97.80
2022-12-10T18:24:20.564Z,97.40
2022-12-10T18:26:48.706Z,97.20
2022-12-10T18:29:18.253Z,96.90
2022-12-10T18:31:46.775Z,96.90
2022-12-10T18:34:17.192Z,97.00
2022-12-10T18:36:48.345Z,97.00
2022-12-10T18:39:19.907Z,97.40
2022-12-10T18:41:48.513Z,97.50
2022-12-10T18:44:22.031Z,97.50
2022-12-10T18:46:51.157Z,97.60
2022-12-10T18:49:20.460Z,97.50
2022-12-10T18:51:48.634Z,97.80
2022-12-10T18:54:16.913Z,98.20
2022-12-10T18:56:49.963Z,98.40
2022-12-10T18:59:27.361Z,97.80
2022-12-10T19:01:55.509Z,98.40
2022-12-10T19:04:24.030Z,98.20
2022-12-10T19:06:52.275Z,98.20
2022-12-10T19:09:20.920Z,98.20
2022-12-10T19:11:51.673Z,98.10
2022-12-10T19:14:20.895Z,97.80
2022-12-10T19:16:51.826Z,97.70
2022-12-10T19:19:20.818Z,97.00
2022-12-10T19:21:49.535Z,97.10
2022-12-10T19:24:17.740Z,97.00
2022-12-10T19:26:46.016Z,97.00
2022-12-10T19:29:16.633Z,96.50
2022-12-10T19:31:46.275Z,96.80
2022-12-10T19:34:17.640Z,96.40
2022-12-10T19:36:46.182Z,96.60
2022-12-10T19:39:20.348Z,96.30
2022-12-10T19:41:48.779Z,96.10
2022-12-10T19:44:17.376Z,95.00
2022-12-10T19:46:45.962Z,95.10
2022-12-10T19:49:17.493Z,94.80
2022-12-10T19:51:45.719Z,94.70
2022-12-10T19:54:13.884Z,94.90
2022-12-10T19:56:42.966Z,94.90
2022-12-10T19:59:15.624Z,94.40
2022-12-10T20:01:44.369Z,94.30
2022-12-10T20:04:12.822Z,94.00
2022-12-10T20:06:43.924Z,93.60
2022-12-10T20:09:19.627Z,93.60
2022-12-10T20:11:48.352Z,93.50
2022-12-10T20:14:17.095Z,93.80
2022-12-10T20:16:46.731Z,94.20
2022-12-10T20:19:16.485Z,94.00
2022-12-10T20:21:46.078Z,94.40
2022-12-10T20:24:14.346Z,95.40
2022-12-10T20:26:45.299Z,95.90
2022-12-10T20:29:18.326Z,96.30
2022-12-10T20:31:47.849Z,96.30
2022-12-10T20:34:16.083Z,95.50
2022-12-10T20:36:46.033Z,96.00
2022-12-10T20:39:19.588Z,95.40
2022-12-10T20:41:48.813Z,94.50
2022-12-10T20:44:17.644Z,94.00
2022-12-10T20:46:46.201Z,93.90
2022-12-10T20:49:15.724Z,94.10
2022-12-10T20:51:45.194Z,93.10
2022-12-10T20:54:13.748Z,92.70
2022-12-10T20:56:42.234Z,92.70
2022-12-10T20:59:12.479Z,92.90
2022-12-10T21:01:41.032Z,91.50
2022-12-10T21:04:09.272Z,91.40
2022-12-10T21:06:37.488Z,91.30
2022-12-10T21:09:07.080Z,91.00
2022-12-10T21:11:35.335Z,90.70
2022-12-10T21:14:07.094Z,90.70
2022-12-10T21:16:46.501Z,90.80
2022-12-10T21:19:14.879Z,90.40
2022-12-10T21:21:43.540Z,90.30
2022-12-10T21:24:13.204Z,89.90
2022-12-10T21:26:41.369Z,90.10
2022-12-10T21:29:10.034Z,90.70
2022-12-10T21:31:38.380Z,90.30
2022-12-10T21:34:07.019Z,90.70
2022-12-10T21:36:35.731Z,90.90
2022-12-10T21:39:05.109Z,91.10
2022-12-10T21:41:52.575Z,87.60
2022-12-10T21:44:20.866Z,90.90
2022-12-10T21:46:49.025Z,90.40
2022-12-10T21:49:17.406Z,90.80
2022-12-10T21:51:46.113Z,89.70
2022-12-10T21:54:14.280Z,86.80
2022-12-10T21:56:43.848Z,86.10
2022-12-10T21:59:11.774Z,87.50
2022-12-10T22:01:40.067Z,86.30
2022-12-10T22:04:10.763Z,85.60
2022-12-10T22:06:41.358Z,85.30
2022-12-10T22:09:09.449Z,83.70
2022-12-10T22:11:37.625Z,83.50
2022-12-10T22:14:07.125Z,81.20
2022-12-10T22:16:36.880Z,80.50
2022-12-10T22:19:05.798Z,73.70
2022-12-10T22:21:34.014Z,73.10
2022-12-10T22:24:02.106Z,73.10
2022-12-10T22:26:30.816Z,75.70
2022-12-10T22:28:58.890Z,77.10
2022-12-10T22:31:28.924Z,76.20
2022-12-10T22:33:57.112Z,80.00
2022-12-10T22:36:25.522Z,82.80
2022-12-10T22:38:54.962Z,86.70
2022-12-10T22:41:23.080Z,88.60
2022-12-10T22:43:52.077Z,87.50
2022-12-10T22:46:21.116Z,90.00
2022-12-10T22:48:50.875Z,90.40
2022-12-10T22:51:19.123Z,91.20
2022-12-10T22:53:47.488Z,92.80
2022-12-10T22:56:16.357Z,93.10
2022-12-10T22:58:45.071Z,93.00
2022-12-10T23:01:16.561Z,93.60
2022-12-10T23:03:44.879Z,92.40
2022-12-10T23:06:14.560Z,92.90
2022-12-10T23:08:43.535Z,92.20
2022-12-10T23:11:13.893Z,93.50
2022-12-10T23:13:41.369Z,93.50
2022-12-10T23:16:13.093Z,93.00
2022-12-10T23:18:41.779Z,92.60
2022-12-10T23:21:17.767Z,92.30
2022-12-10T23:23:46.709Z,93.10
2022-12-10T23:26:15.256Z,92.10
2022-12-10T23:28:43.529Z,92.20
2022-12-10T23:31:12.381Z,91.80
2022-12-10T23:33:41.408Z,92.30
2022-12-10T23:36:11.998Z,90.70
2022-12-10T23:38:41.990Z,92.30
2022-12-10T23:41:12.270Z,92.60
2022-12-10T23:43:41.067Z,91.70
2022-12-10T23:46:09.421Z,90.60
2022-12-10T23:48:37.773Z,90.90
2022-12-10T23:51:06.945Z,91.00
2022-12-10T23:53:35.623Z,91.40
2022-12-10T23:56:14.431Z,92.40
2022-12-10T23:58:43.401Z,91.50
